createdAt,value
2019-02-11T00:01:14.048Z,100970.86
2019-02-11T00:04:17.165Z,100972.75
2019-02-11T00:07:20.231Z,100983.17
2019-02-11T00:10:23.298Z,100990.40
2019-02-11T00:13:26.359Z,100987.27
2019-02-11T00:16:29.531Z,100990.34
2019-02-11T00:19:32.633Z,101000.05
2019-02-11T00:22:35.838Z,101009.85
2019-02-11T00:25:39.016Z,101014.19
2019-02-11T00:28:42.107Z,101008.61
2019-02-11T00:31:45.172Z,101014.60
2019-02-11T00:34:48.239Z,101016.14
2019-02-11T00:37:51.389Z,101026.26
2019-02-11T00:40:54.481Z,101018.09
2019-02-11T00:43:57.576Z,101025.62
2019-02-11T00:47:00.672Z,101029.98
2019-02-11T00:50:03.824Z,101007.80
2019-02-11T00:53:06.891Z,101022.92
2019-02-11T00:56:10.036Z,101030.47
2019-02-11T00:59:13.149Z,101025.57
2019-02-11T01:02:16.235Z,101028.22
2019-02-11T01:05:19.330Z,101037.07
2019-02-11T01:08:22.399Z,101041.34
2019-02-11T01:11:25.498Z,101035.42
2019-02-11T01:14:28.587Z,101037.85
2019-02-11T01:17:31.667Z,101035.17
2019-02-11T01:20:34.791Z,101035.96
2019-02-11T01:23:37.970Z,101048.47
2019-02-11T01:26:41.070Z,101050.28
2019-02-11T01:29:44.150Z,101063.35
2019-02-11T01:32:47.237Z,101070.05
2019-02-11T01:35:50.304Z,101082.37
2019-02-11T01:38:53.411Z,101083.19
2019-02-11T01:41:56.511Z,101095.07
2019-02-11T01:44:59.614Z,101110.38
2019-02-11T01:48:02.687Z,101112.81
2019-02-11T01:51:05.798Z,101115.41
2019-02-11T01:54:08.888Z,101119.55
2019-02-11T01:57:11.982Z,101118.61
2019-02-11T02:00:15.084Z,101121.21
2019-02-11T02:03:18.160Z,101116.38
2019-02-11T02:06:21.255Z,101118.52
2019-02-11T02:09:24.339Z,101119.86
2019-02-11T02:12:27.447Z,101125.81
2019-02-11T02:15:30.525Z,101126.86
2019-02-11T02:18:33.611Z,101128.05
2019-02-11T02:21:36.707Z,101131.63
2019-02-11T02:24:39.768Z,101137.91
2019-02-11T02:27:42.911Z,101138.92
2019-02-11T02:30:46.000Z,101155.96
2019-02-11T02:33:49.091Z,101159.14
2019-02-11T02:36:52.184Z,101164.42
2019-02-11T02:39:55.241Z,101168.71
2019-02-11T02:42:58.575Z,101181.08
2019-02-11T02:46:01.619Z,101181.79
2019-02-11T02:49:04.756Z,101182.40
2019-02-11T02:52:07.840Z,101186.46
2019-02-11T02:55:10.970Z,101198.17
2019-02-11T02:58:14.132Z,101204.13
2019-02-11T03:01:17.222Z,101212.60
2019-02-11T03:04:20.279Z,101218.67
2019-02-11T03:07:23.332Z,101229.78
2019-02-11T03:10:26.528Z,101233.98
2019-02-11T03:13:29.575Z,101243.11
2019-02-11T03:16:32.651Z,101252.07
2019-02-11T03:19:35.763Z,101252.09
2019-02-11T03:22:38.856Z,101265.67
2019-02-11T03:25:42.593Z,101269.25
2019-02-11T03:28:45.761Z,101270.72
2019-02-11T03:31:48.845Z,101277.38
2019-02-11T03:34:51.951Z,101281.81
2019-02-11T03:37:55.028Z,101281.29
2019-02-11T03:40:58.134Z,101293.78
2019-02-11T03:44:01.227Z,101298.57
2019-02-11T03:47:04.306Z,101301.08
2019-02-11T03:50:07.812Z,101310.46
2019-02-11T03:53:10.872Z,101307.21
2019-02-11T03:56:13.992Z,101318.12
2019-02-11T03:59:17.083Z,101324.31
2019-02-11T04:02:20.195Z,101337.08
2019-02-11T04:05:23.396Z,101336.75
2019-02-11T04:08:26.480Z,101343.96
2019-02-11T04:11:29.566Z,101353.33
2019-02-11T04:14:32.659Z,101369.19
2019-02-11T04:17:35.749Z,101363.93
2019-02-11T04:20:38.907Z,101370.67
2019-02-11T04:23:42.030Z,101375.92
2019-02-11T04:26:45.120Z,101385.39
2019-02-11T04:29:48.220Z,101383.16
2019-02-11T04:32:51.370Z,101391.99
2019-02-11T04:35:54.383Z,101396.59
2019-02-11T04:38:57.499Z,101406.36
2019-02-11T04:42:00.559Z,101408.74
2019-02-11T04:45:03.919Z,101413.15
2019-02-11T04:48:07.075Z,101420.26
2019-02-11T04:51:10.155Z,101426.54
2019-02-11T04:54:13.254Z,101439.59
2019-02-11T04:57:16.346Z,101437.95
2019-02-11T05:00:19.469Z,101436.94
2019-02-11T05:03:22.644Z,101459.05
2019-02-11T05:06:25.834Z,101459.45
2019-02-11T05:09:28.918Z,101463.46
2019-02-11T05:12:31.997Z,101469.61
2019-02-11T05:15:35.107Z,101472.91
2019-02-11T05:18:38.210Z,101474.32
2019-02-11T05:21:41.292Z,101478.62
2019-02-11T05:24:44.377Z,101480.66
2019-02-11T05:27:47.464Z,101488.02
2019-02-11T05:30:50.551Z,101492.98
2019-02-11T05:33:53.660Z,101499.93
2019-02-11T05:36:56.749Z,101496.17
2019-02-11T05:39:59.851Z,101511.10
2019-02-11T05:43:02.939Z,101516.62
2019-02-11T05:46:06.026Z,101525.51
2019-02-11T05:49:09.126Z,101531.89
2019-02-11T05:52:12.329Z,101536.96
2019-02-11T05:55:15.404Z,101547.82
2019-02-11T05:58:18.456Z,101550.05
2019-02-11T06:01:21.584Z,101562.88
2019-02-11T06:04:24.656Z,101572.99
2019-02-11T06:07:27.792Z,101584.62
2019-02-11T06:10:31.962Z,101594.35
2019-02-11T06:13:35.085Z,101600.24
2019-02-11T06:16:38.263Z,101608.55
2019-02-11T06:19:41.333Z,101608.92
2019-02-11T06:22:44.456Z,101610.85
2019-02-11T06:25:47.538Z,101625.01
2019-02-11T06:28:50.627Z,101632.19
2019-02-11T06:31:53.738Z,101640.48
2019-02-11T06:34:57.186Z,101651.37
2019-02-11T06:38:00.264Z,101649.91
2019-02-11T06:41:03.424Z,101662.51
2019-02-11T06:44:06.519Z,101668.93
2019-02-11T06:47:09.717Z,101679.69
2019-02-11T06:50:13.260Z,101685.17
2019-02-11T06:53:16.345Z,101696.10
2019-02-11T06:56:19.500Z,101705.34
2019-02-11T06:59:22.591Z,101722.81
2019-02-11T07:02:25.788Z,101733.40
2019-02-11T07:05:28.876Z,101751.78
2019-02-11T07:08:31.989Z,101756.43
2019-02-11T07:11:35.053Z,101768.42
2019-02-11T07:14:38.149Z,101779.36
2019-02-11T07:17:41.199Z,101785.11
2019-02-11T07:20:44.321Z,101792.39
2019-02-11T07:23:47.432Z,101803.07
2019-02-11T07:26:50.511Z,101810.58
2019-02-11T07:29:53.612Z,101822.13
2019-02-11T07:32:56.711Z,101825.17
2019-02-11T07:35:59.808Z,101831.30
2019-02-11T07:39:03.028Z,101843.73
2019-02-11T07:42:12.374Z,101848.36
2019-02-11T07:45:29.705Z,101853.93
2019-02-11T07:48:24.643Z,101863.70
2019-02-11T07:51:27.752Z,101867.13
2019-02-11T07:54:30.833Z,101872.14
2019-02-11T07:57:33.962Z,101882.23
2019-02-11T08:00:37.139Z,101883.07
2019-02-11T08:03:40.324Z,101891.06
2019-02-11T08:06:43.395Z,101899.29
2019-02-11T08:09:46.508Z,101899.35
2019-02-11T08:12:49.699Z,101911.44
2019-02-11T08:15:52.795Z,101910.01
2019-02-11T08:18:55.892Z,101920.56
2019-02-11T08:21:59.011Z,101926.08
2019-02-11T08:25:02.200Z,101936.58
2019-02-11T08:28:05.393Z,101940.00
2019-02-11T08:31:08.467Z,101942.27
2019-02-11T08:34:11.649Z,101951.95
2019-02-11T08:37:14.748Z,101957.17
2019-02-11T08:40:17.845Z,101959.55
2019-02-11T08:43:21.031Z,101969.10
2019-02-11T08:46:24.147Z,101975.85
2019-02-11T08:49:27.315Z,101975.06
2019-02-11T08:52:30.409Z,101979.72
2019-02-11T08:55:33.476Z,101987.31
2019-02-11T08:58:36.621Z,101993.96
2019-02-11T09:01:39.808Z,101998.94
2019-02-11T09:04:42.991Z,102005.24
2019-02-11T09:07:46.118Z,102017.03
2019-02-11T09:10:49.270Z,102023.88
2019-02-11T09:13:52.324Z,102030.48
2019-02-11T09:16:55.400Z,102028.98
2019-02-11T09:19:58.475Z,102042.84
2019-02-11T09:23:01.639Z,102040.58
2019-02-11T09:26:04.752Z,102044.62
2019-02-11T09:29:07.808Z,102045.83
2019-02-11T09:32:10.887Z,102046.40
2019-02-11T09:35:13.961Z,102045.69
2019-02-11T09:38:17.093Z,102047.76
2019-02-11T09:41:20.170Z,102057.83
2019-02-11T09:44:29.481Z,102067.91
2019-02-11T09:47:27.283Z,102073.12
2019-02-11T09:50:34.392Z,102079.86
2019-02-11T09:53:37.572Z,102088.91
2019-02-11T09:56:40.660Z,102078.16
2019-02-11T09:59:43.768Z,102084.64
2019-02-11T10:02:46.924Z,102102.21
2019-02-11T10:05:49.980Z,102114.44
2019-02-11T10:08:53.135Z,102122.26
2019-02-11T10:11:56.215Z,102120.15
2019-02-11T10:14:59.320Z,102121.44
2019-02-11T10:18:02.528Z,102139.21
2019-02-11T10:21:05.695Z,102158.20
2019-02-11T10:24:08.799Z,102152.73
2019-02-11T10:27:11.862Z,102154.62
2019-02-11T10:30:15.035Z,102168.61
2019-02-11T10:33:18.130Z,102177.71
2019-02-11T10:36:21.281Z,102172.16
2019-02-11T10:39:24.356Z,102169.65
2019-02-11T10:42:27.472Z,102181.15
2019-02-11T10:45:36.491Z,102188.52
2019-02-11T10:48:33.742Z,102188.53
2019-02-11T10:51:36.844Z,102183.30
2019-02-11T10:54:40.020Z,102201.86
2019-02-11T10:57:43.407Z,102200.00
2019-02-11T11:00:46.544Z,102210.00
2019-02-11T11:03:49.728Z,102209.91
2019-02-11T11:06:52.916Z,102218.23
2019-02-11T11:09:55.987Z,102222.22
2019-02-11T11:12:59.060Z,102225.59
2019-02-11T11:16:02.417Z,102226.36
2019-02-11T11:19:05.488Z,102235.95
2019-02-11T11:22:08.592Z,102231.44
2019-02-11T11:25:11.672Z,102239.70
2019-02-11T11:28:14.740Z,102245.02
2019-02-11T11:31:17.816Z,102253.26
2019-02-11T11:34:20.875Z,102246.60
2019-02-11T11:37:24.012Z,102250.66
2019-02-11T11:40:27.166Z,102255.00
2019-02-11T11:43:30.245Z,102257.93
2019-02-11T11:46:45.592Z,102258.68
2019-02-11T11:49:36.477Z,102262.21
2019-02-11T11:52:39.582Z,102257.40
2019-02-11T11:55:42.681Z,102263.47
2019-02-11T11:58:45.783Z,102261.51
2019-02-11T12:01:48.853Z,102259.92
2019-02-11T12:04:51.912Z,102270.78
2019-02-11T12:07:55.056Z,102267.14
2019-02-11T12:10:58.133Z,102267.26
2019-02-11T12:14:01.248Z,102271.23
2019-02-11T12:17:04.331Z,102268.39
2019-02-11T12:20:08.800Z,102273.60
2019-02-11T12:23:12.007Z,102278.02
2019-02-11T12:26:15.060Z,102275.69
2019-02-11T12:29:18.124Z,102276.12
2019-02-11T12:32:21.217Z,102283.39
2019-02-11T12:35:24.282Z,102291.37
2019-02-11T12:38:27.399Z,102290.66
2019-02-11T12:41:30.451Z,102295.15
2019-02-11T12:44:33.571Z,102297.31
2019-02-11T12:47:36.668Z,102302.48
2019-02-11T12:50:39.758Z,102303.67
2019-02-11T12:53:42.858Z,102300.21
2019-02-11T12:56:45.929Z,102303.41
2019-02-11T12:59:49.059Z,102311.53
2019-02-11T13:02:52.136Z,102317.56
2019-02-11T13:05:55.253Z,102316.21
2019-02-11T13:08:58.349Z,102319.36
2019-02-11T13:12:01.409Z,102323.29
2019-02-11T13:15:04.891Z,102327.81
2019-02-11T13:18:08.113Z,102329.94
2019-02-11T13:21:11.629Z,102341.00
2019-02-11T13:24:14.192Z,102334.89
2019-02-11T13:27:17.245Z,102349.09
2019-02-11T13:30:20.573Z,102341.27
2019-02-11T13:33:23.626Z,102344.80
2019-02-11T13:36:26.771Z,102349.12
2019-02-11T13:39:29.859Z,102355.66
2019-02-11T13:42:32.960Z,102352.16
2019-02-11T13:45:36.044Z,102355.96
2019-02-11T13:48:39.178Z,102361.71
2019-02-11T13:51:42.364Z,102362.71
2019-02-11T13:54:45.489Z,102370.75
2019-02-11T13:57:48.690Z,102371.63
2019-02-11T14:00:51.749Z,102379.48
2019-02-11T14:03:54.894Z,102394.77
2019-02-11T14:06:57.989Z,102400.32
2019-02-11T14:10:02.550Z,102424.41
2019-02-11T14:13:04.222Z,102441.74
2019-02-11T14:16:07.255Z,102471.66
2019-02-11T14:19:10.351Z,102472.79
2019-02-11T14:22:13.471Z,102473.53
2019-02-11T14:25:16.550Z,102464.18
2019-02-11T14:28:19.736Z,102476.04
2019-02-11T14:31:22.820Z,102483.99
2019-02-11T14:34:25.941Z,102480.85
2019-02-11T14:37:29.015Z,102487.19
2019-02-11T14:40:32.133Z,102487.43
2019-02-11T14:43:35.295Z,102488.06
2019-02-11T14:46:38.398Z,102485.44
2019-02-11T14:49:41.477Z,102477.08
2019-02-11T14:52:44.569Z,102491.19
2019-02-11T14:55:47.783Z,102492.19
2019-02-11T14:58:50.916Z,102502.92
2019-02-11T15:01:54.046Z,102509.62
2019-02-11T15:04:57.156Z,102509.74
2019-02-11T15:08:00.215Z,102522.71
2019-02-11T15:11:03.341Z,102521.32
2019-02-11T15:14:06.426Z,102517.95
2019-02-11T15:17:09.524Z,102524.87
2019-02-11T15:20:13.768Z,102526.65
2019-02-11T15:23:16.833Z,102533.51
2019-02-11T15:26:19.935Z,102534.69
2019-02-11T15:29:23.116Z,102544.25
2019-02-11T15:32:26.431Z,102543.72
2019-02-11T15:35:29.506Z,102555.83
2019-02-11T15:38:32.576Z,102561.83
2019-02-11T15:41:35.695Z,102566.83
2019-02-11T15:44:38.800Z,102572.01
2019-02-11T15:47:41.979Z,102577.56
2019-02-11T15:50:45.078Z,102582.09
2019-02-11T15:53:48.241Z,102578.41
2019-02-11T15:56:51.335Z,102579.26
2019-02-11T15:59:54.452Z,102578.69
2019-02-11T16:02:57.537Z,102577.70
2019-02-11T16:06:10.272Z,102587.96
2019-02-11T16:09:05.130Z,102601.62
2019-02-11T16:12:08.376Z,102611.56
2019-02-11T16:15:11.380Z,102613.99
2019-02-11T16:18:14.523Z,102625.96
2019-02-11T16:21:17.589Z,102624.87
2019-02-11T16:24:20.714Z,102628.40
2019-02-11T16:27:23.803Z,102629.57
2019-02-11T16:30:27.079Z,102632.05
2019-02-11T16:33:30.193Z,102633.88
2019-02-11T16:36:33.283Z,102634.15
2019-02-11T16:39:36.369Z,102631.51
2019-02-11T16:42:39.468Z,102644.84
2019-02-11T16:45:42.570Z,102637.93
2019-02-11T16:48:45.636Z,102637.11
2019-02-11T16:51:48.704Z,102645.35
2019-02-11T16:54:51.853Z,102648.17
2019-02-11T16:57:55.084Z,102653.21
2019-02-11T17:00:58.247Z,102665.39
2019-02-11T17:04:01.343Z,102684.32
2019-02-11T17:07:04.408Z,102686.65
2019-02-11T17:10:08.511Z,102686.03
2019-02-11T17:13:11.607Z,102682.93
2019-02-11T17:16:14.697Z,102683.57
2019-02-11T17:19:17.805Z,102707.34
2019-02-11T17:22:20.928Z,102717.04
2019-02-11T17:25:24.094Z,102722.47
2019-02-11T17:28:27.252Z,102733.20
2019-02-11T17:31:30.316Z,102742.08
2019-02-11T17:34:33.455Z,102746.96
2019-02-11T17:37:36.604Z,102762.55
2019-02-11T17:40:39.779Z,102758.44
2019-02-11T17:43:42.951Z,102768.89
2019-02-11T17:46:46.076Z,102769.33
2019-02-11T17:49:49.240Z,102781.69
2019-02-11T17:52:53.064Z,102790.59
2019-02-11T17:55:56.271Z,102794.89
2019-02-11T17:58:59.445Z,102800.60
2019-02-11T18:02:02.596Z,102794.45
2019-02-11T18:05:05.664Z,102802.63
2019-02-11T18:08:08.720Z,102805.96
2019-02-11T18:11:11.803Z,102811.97
2019-02-11T18:14:18.291Z,102820.59
2019-02-11T18:17:21.359Z,102822.43
2019-02-11T18:20:24.457Z,102814.64
2019-02-11T18:23:27.576Z,102822.12
2019-02-11T18:26:30.923Z,102839.45
2019-02-11T18:29:34.062Z,102847.77
2019-02-11T18:32:37.240Z,102855.10
2019-02-11T18:35:40.372Z,102873.32
2019-02-11T18:38:43.540Z,102883.25
2019-02-11T18:41:46.629Z,102892.80
2019-02-11T18:44:49.716Z,102891.16
2019-02-11T18:47:52.807Z,102903.07
2019-02-11T18:50:56.035Z,102905.74
2019-02-11T18:53:59.188Z,102912.99
2019-02-11T18:57:02.292Z,102921.23
2019-02-11T19:00:05.872Z,102940.41
2019-02-11T19:03:08.992Z,102910.71
2019-02-11T19:06:12.070Z,102945.00
2019-02-11T19:09:16.877Z,102965.58
2019-02-11T19:12:20.021Z,102969.61
2019-02-11T19:15:23.207Z,102967.48
2019-02-11T19:18:26.382Z,102977.84
2019-02-11T19:21:29.471Z,102989.79
2019-02-11T19:24:32.575Z,102997.86
2019-02-11T19:27:35.632Z,103005.74
2019-02-11T19:30:38.761Z,103015.24
2019-02-11T19:33:41.879Z,103020.92
2019-02-11T19:36:45.088Z,103022.10
2019-02-11T19:39:48.190Z,103025.45
2019-02-11T19:42:51.335Z,103033.84
2019-02-11T19:45:54.420Z,103042.05
2019-02-11T19:48:57.504Z,103053.32
2019-02-11T19:52:00.628Z,103053.07
2019-02-11T19:55:03.810Z,103058.50
2019-02-11T19:58:06.877Z,103058.40
2019-02-11T20:01:09.977Z,103060.97
2019-02-11T20:04:13.068Z,103074.35
2019-02-11T20:07:17.083Z,103074.73
2019-02-11T20:10:20.227Z,103077.20
2019-02-11T20:13:23.367Z,103068.90
2019-02-11T20:16:26.439Z,103071.01
2019-02-11T20:19:29.551Z,103077.58
2019-02-11T20:22:32.639Z,103086.36
2019-02-11T20:25:35.704Z,103093.53
2019-02-11T20:28:38.892Z,103090.61
2019-02-11T20:31:42.039Z,103101.48
2019-02-11T20:34:45.111Z,103102.86
2019-02-11T20:37:48.243Z,103112.14
2019-02-11T20:40:51.443Z,103108.60
2019-02-11T20:43:54.508Z,103114.44
2019-02-11T20:46:57.611Z,103121.67
2019-02-11T20:50:08.646Z,103130.07
2019-02-11T20:53:03.900Z,103138.74
2019-02-11T20:56:07.155Z,103142.08
2019-02-11T20:59:10.256Z,103134.80
2019-02-11T21:02:13.343Z,103127.86
2019-02-11T21:05:16.412Z,103137.68
2019-02-11T21:08:19.497Z,103131.52
2019-02-11T21:11:22.654Z,103116.14
2019-02-11T21:14:25.775Z,103111.87
2019-02-11T21:17:28.850Z,103105.77
2019-02-11T21:20:34.526Z,103108.81
2019-02-11T21:23:37.583Z,103120.54
2019-02-11T21:26:40.788Z,103122.27
2019-02-11T21:29:43.869Z,103119.09
2019-02-11T21:32:46.984Z,103112.19
2019-02-11T21:35:50.654Z,103120.53
2019-02-11T21:38:53.777Z,103137.65
2019-02-11T21:41:56.922Z,103140.11
2019-02-11T21:45:00.156Z,103143.53
2019-02-11T21:48:03.227Z,103144.24
2019-02-11T21:51:06.332Z,103156.43
2019-02-11T21:54:09.508Z,103164.47
2019-02-11T21:57:12.619Z,103172.19
2019-02-11T22:00:17.207Z,103182.42
2019-02-11T22:03:20.351Z,103187.91
2019-02-11T22:06:23.509Z,103202.97
2019-02-11T22:09:26.665Z,103214.48
2019-02-11T22:12:30.720Z,103223.60
2019-02-11T22:15:33.825Z,103241.59
2019-02-11T22:18:36.913Z,103242.94
2019-02-11T22:21:39.995Z,103256.87
2019-02-11T22:24:43.088Z,103270.61
2019-02-11T22:27:46.188Z,103278.75
2019-02-11T22:30:49.291Z,103273.68
2019-02-11T22:33:52.352Z,103280.86
2019-02-11T22:36:55.527Z,103281.48
2019-02-11T22:39:59.496Z,103284.43
2019-02-11T22:43:02.684Z,103280.95
2019-02-11T22:46:05.764Z,103276.44
2019-02-11T22:49:09.091Z,103281.64
2019-02-11T22:52:12.244Z,103284.46
2019-02-11T22:55:15.346Z,103281.25
2019-02-11T22:58:18.431Z,103289.94
2019-02-11T23:01:21.516Z,103284.04
2019-02-11T23:04:24.715Z,103279.12
2019-02-11T23:07:27.860Z,103285.20
2019-02-11T23:10:31.044Z,103288.49
2019-02-11T23:13:34.203Z,103287.00
2019-02-11T23:16:38.701Z,103290.03
2019-02-11T23:19:40.373Z,103296.55
2019-02-11T23:22:43.472Z,103304.24
2019-02-11T23:25:46.556Z,103308.93
2019-02-11T23:28:49.656Z,103308.60
2019-02-11T23:31:52.759Z,103311.27
2019-02-11T23:34:55.852Z,103319.40
2019-02-11T23:37:58.916Z,103334.39
2019-02-11T23:41:02.041Z,103339.78
2019-02-11T23:44:05.256Z,103344.07
2019-02-11T23:47:08.426Z,103343.73
2019-02-11T23:50:11.516Z,103349.39
2019-02-11T23:53:14.606Z,103354.50
2019-02-11T23:56:17.656Z,103350.47
2019-02-11T23:59:20.737Z,103357.64
